sensor_id;sensor_type;location;lat;lon;timestamp;P1;durP1;ratioP1;P2;durP2;ratioP2
5555;SDS011;2801;50.972;7.856;2022-07-29T00:02:24;5.82;;;2.70;;
5555;SDS011;2801;50.972;7.856;2022-07-29T00:04:52;5.22;;;2.60;;
5555;SDS011;2801;50.972;7.856;2022-07-29T00:07:19;4.13;;;2.55;;
5555;SDS011;2801;50.972;7.856;2022-07-29T00:09:46;4.72;;;2.63;;
5555;SDS011;2801;50.972;7.856;2022-07-29T00:12:16;2.72;;;2.40;;
5555;SDS011;2801;50.972;7.856;2022-07-29T00:14:52;4.47;;;2.50;;
5555;SDS011;2801;50.972;7.856;2022-07-29T00:17:22;3.47;;;2.10;;
5555;SDS011;2801;50.972;7.856;2022-07-29T00:19:51;5.35;;;2.50;;
5555;SDS011;2801;50.972;7.856;2022-07-29T00:22:19;3.05;;;2.20;;
5555;SDS011;2801;50.972;7.856;2022-07-29T00:24:47;3.63;;;2.42;;
5555;SDS011;2801;50.972;7.856;2022-07-29T00:27:15;2.53;;;2.28;;
5555;SDS011;2801;50.972;7.856;2022-07-29T00:29:43;6.80;;;2.10;;
5555;SDS011;2801;50.972;7.856;2022-07-29T00:32:10;2.20;;;1.85;;
5555;SDS011;2801;50.972;7.856;2022-07-29T00:34:38;4.22;;;2.05;;
5555;SDS011;2801;50.972;7.856;2022-07-29T00:37:23;4.72;;;2.20;;
5555;SDS011;2801;50.972;7.856;2022-07-29T00:39:50;4.05;;;2.38;;
5555;SDS011;2801;50.972;7.856;2022-07-29T00:42:18;2.75;;;2.10;;
5555;SDS011;2801;50.972;7.856;2022-07-29T00:44:44;3.10;;;2.00;;
5555;SDS011;2801;50.972;7.856;2022-07-29T00:47:12;4.63;;;1.70;;
5555;SDS011;2801;50.972;7.856;2022-07-29T00:49:39;5.18;;;2.28;;
5555;SDS011;2801;50.972;7.856;2022-07-29T00:52:08;2.55;;;1.73;;
5555;SDS011;2801;50.972;7.856;2022-07-29T00:54:37;3.25;;;1.70;;
5555;SDS011;2801;50.972;7.856;2022-07-29T00:57:09;5.28;;;2.00;;
5555;SDS011;2801;50.972;7.856;2022-07-29T00:59:38;2.20;;;1.90;;
5555;SDS011;2801;50.972;7.856;2022-07-29T01:02:05;4.65;;;2.10;;
5555;SDS011;2801;50.972;7.856;2022-07-29T01:04:32;5.18;;;2.13;;
5555;SDS011;2801;50.972;7.856;2022-07-29T01:07:03;3.78;;;2.40;;
5555;SDS011;2801;50.972;7.856;2022-07-29T01:09:31;3.00;;;2.08;;
5555;SDS011;2801;50.972;7.856;2022-07-29T01:12:32;3.20;;;2.13;;
5555;SDS011;2801;50.972;7.856;2022-07-29T01:15:04;3.85;;;2.50;;
5555;SDS011;2801;50.972;7.856;2022-07-29T01:25:54;3.13;;;1.75;;
5555;SDS011;2801;50.972;7.856;2022-07-29T01:35:03;2.15;;;1.70;;
5555;SDS011;2801;50.972;7.856;2022-07-29T01:37:43;5.47;;;2.50;;
5555;SDS011;2801;50.972;7.856;2022-07-29T01:40:26;6.88;;;2.60;;
5555;SDS011;2801;50.972;7.856;2022-07-29T01:43:03;3.33;;;2.30;;
5555;SDS011;2801;50.972;7.856;2022-07-29T01:45:41;3.72;;;2.17;;
5555;SDS011;2801;50.972;7.856;2022-07-29T01:51:12;3.97;;;2.22;;
5555;SDS011;2801;50.972;7.856;2022-07-29T01:56:19;2.63;;;2.15;;
5555;SDS011;2801;50.972;7.856;2022-07-29T01:58:50;3.05;;;2.10;;
5555;SDS011;2801;50.972;7.856;2022-07-29T02:01:20;5.38;;;2.05;;
5555;SDS011;2801;50.972;7.856;2022-07-29T02:03:51;4.10;;;1.85;;
5555;SDS011;2801;50.972;7.856;2022-07-29T02:06:21;3.85;;;1.88;;
5555;SDS011;2801;50.972;7.856;2022-07-29T02:08:50;4.70;;;2.15;;
5555;SDS011;2801;50.972;7.856;2022-07-29T02:11:19;2.80;;;2.00;;
5555;SDS011;2801;50.972;7.856;2022-07-29T02:13:46;3.72;;;1.98;;
5555;SDS011;2801;50.972;7.856;2022-07-29T02:16:16;5.28;;;1.90;;
5555;SDS011;2801;50.972;7.856;2022-07-29T02:18:48;3.50;;;1.70;;
5555;SDS011;2801;50.972;7.856;2022-07-29T02:21:21;4.70;;;1.98;;
5555;SDS011;2801;50.972;7.856;2022-07-29T02:23:52;5.13;;;1.80;;
5555;SDS011;2801;50.972;7.856;2022-07-29T02:26:22;2.85;;;1.83;;
5555;SDS011;2801;50.972;7.856;2022-07-29T02:28:52;4.13;;;2.20;;
5555;SDS011;2801;50.972;7.856;2022-07-29T02:31:25;2.85;;;1.90;;
5555;SDS011;2801;50.972;7.856;2022-07-29T02:33:58;3.55;;;1.90;;
5555;SDS011;2801;50.972;7.856;2022-07-29T02:36:28;3.60;;;1.67;;
5555;SDS011;2801;50.972;7.856;2022-07-29T02:38:58;3.03;;;1.90;;
5555;SDS011;2801;50.972;7.856;2022-07-29T02:41:41;4.03;;;1.85;;
5555;SDS011;2801;50.972;7.856;2022-07-29T02:44:16;4.80;;;1.92;;
5555;SDS011;2801;50.972;7.856;2022-07-29T02:46:48;6.88;;;2.55;;
5555;SDS011;2801;50.972;7.856;2022-07-29T02:55:00;3.28;;;2.15;;
5555;SDS011;2801;50.972;7.856;2022-07-29T03:00:36;3.10;;;2.00;;
5555;SDS011;2801;50.972;7.856;2022-07-29T03:03:07;2.53;;;1.65;;
5555;SDS011;2801;50.972;7.856;2022-07-29T03:05:39;3.67;;;1.90;;
5555;SDS011;2801;50.972;7.856;2022-07-29T03:08:08;2.70;;;1.95;;
5555;SDS011;2801;50.972;7.856;2022-07-29T03:10:39;4.28;;;2.03;;
5555;SDS011;2801;50.972;7.856;2022-07-29T03:13:09;2.78;;;1.83;;
5555;SDS011;2801;50.972;7.856;2022-07-29T03:15:39;3.13;;;2.10;;
5555;SDS011;2801;50.972;7.856;2022-07-29T03:18:08;5.50;;;2.13;;
5555;SDS011;2801;50.972;7.856;2022-07-29T03:20:36;2.53;;;2.00;;
5555;SDS011;2801;50.972;7.856;2022-07-29T03:23:04;3.67;;;2.00;;
5555;SDS011;2801;50.972;7.856;2022-07-29T03:25:31;4.63;;;1.90;;
5555;SDS011;2801;50.972;7.856;2022-07-29T03:27:58;3.00;;;2.08;;
5555;SDS011;2801;50.972;7.856;2022-07-29T03:30:25;2.80;;;1.95;;
5555;SDS011;2801;50.972;7.856;2022-07-29T03:32:53;4.47;;;1.95;;
5555;SDS011;2801;50.972;7.856;2022-07-29T03:35:23;4.03;;;2.10;;
5555;SDS011;2801;50.972;7.856;2022-07-29T03:37:50;2.60;;;2.35;;
5555;SDS011;2801;50.972;7.856;2022-07-29T03:40:19;6.97;;;2.40;;
5555;SDS011;2801;50.972;7.856;2022-07-29T03:42:56;4.05;;;2.53;;
5555;SDS011;2801;50.972;7.856;2022-07-29T03:45:25;3.80;;;2.17;;
5555;SDS011;2801;50.972;7.856;2022-07-29T03:48:01;4.15;;;2.15;;
5555;SDS011;2801;50.972;7.856;2022-07-29T03:50:34;3.05;;;2.50;;
5555;SDS011;2801;50.972;7.856;2022-07-29T03:53:02;6.15;;;2.22;;
5555;SDS011;2801;50.972;7.856;2022-07-29T03:55:32;5.60;;;2.13;;
5555;SDS011;2801;50.972;7.856;2022-07-29T03:58:06;3.90;;;2.20;;
5555;SDS011;2801;50.972;7.856;2022-07-29T04:00:34;5.55;;;2.70;;
5555;SDS011;2801;50.972;7.856;2022-07-29T04:03:03;4.88;;;2.50;;
5555;SDS011;2801;50.972;7.856;2022-07-29T04:05:36;4.80;;;2.53;;
5555;SDS011;2801;50.972;7.856;2022-07-29T04:08:03;5.72;;;2.47;;
5555;SDS011;2801;50.972;7.856;2022-07-29T04:10:31;4.15;;;2.33;;
5555;SDS011;2801;50.972;7.856;2022-07-29T04:13:00;3.90;;;2.30;;
5555;SDS011;2801;50.972;7.856;2022-07-29T04:15:27;6.63;;;2.42;;
5555;SDS011;2801;50.972;7.856;2022-07-29T04:17:57;4.75;;;2.30;;
5555;SDS011;2801;50.972;7.856;2022-07-29T04:20:24;4.07;;;2.60;;
5555;SDS011;2801;50.972;7.856;2022-07-29T04:22:51;3.58;;;2.53;;
5555;SDS011;2801;50.972;7.856;2022-07-29T04:25:18;3.22;;;2.58;;
5555;SDS011;2801;50.972;7.856;2022-07-29T04:27:45;3.75;;;2.55;;
5555;SDS011;2801;50.972;7.856;2022-07-29T04:30:27;5.70;;;2.78;;
5555;SDS011;2801;50.972;7.856;2022-07-29T04:32:59;4.22;;;2.92;;
5555;SDS011;2801;50.972;7.856;2022-07-29T04:35:35;8.13;;;2.83;;
5555;SDS011;2801;50.972;7.856;2022-07-29T04:38:15;6.32;;;3.00;;
5555;SDS011;2801;50.972;7.856;2022-07-29T04:40:42;6.13;;;3.00;;
5555;SDS011;2801;50.972;7.856;2022-07-29T04:43:09;4.85;;;3.00;;
5555;SDS011;2801;50.972;7.856;2022-07-29T04:45:39;4.15;;;2.97;;
5555;SDS011;2801;50.972;7.856;2022-07-29T04:48:06;5.28;;;2.83;;
5555;SDS011;2801;50.972;7.856;2022-07-29T04:50:33;4.35;;;2.58;;
5555;SDS011;2801;50.972;7.856;2022-07-29T04:53:00;6.38;;;2.75;;
5555;SDS011;2801;50.972;7.856;2022-07-29T04:55:27;3.63;;;2.72;;
5555;SDS011;2801;50.972;7.856;2022-07-29T04:57:54;4.38;;;3.00;;
5555;SDS011;2801;50.972;7.856;2022-07-29T05:00:20;4.28;;;2.97;;
5555;SDS011;2801;50.972;7.856;2022-07-29T05:02:57;4.53;;;3.05;;
5555;SDS011;2801;50.972;7.856;2022-07-29T05:05:24;4.13;;;2.65;;
5555;SDS011;2801;50.972;7.856;2022-07-29T05:07:50;4.82;;;3.00;;
5555;SDS011;2801;50.972;7.856;2022-07-29T05:10:17;3.90;;;2.80;;
5555;SDS011;2801;50.972;7.856;2022-07-29T05:12:44;3.85;;;2.83;;
5555;SDS011;2801;50.972;7.856;2022-07-29T05:15:11;4.07;;;2.40;;
5555;SDS011;2801;50.972;7.856;2022-07-29T05:17:38;10.77;;;3.38;;
5555;SDS011;2801;50.972;7.856;2022-07-29T05:20:05;4.10;;;3.05;;
5555;SDS011;2801;50.972;7.856;2022-07-29T05:22:34;4.07;;;3.08;;
5555;SDS011;2801;50.972;7.856;2022-07-29T05:25:00;7.07;;;3.30;;
5555;SDS011;2801;50.972;7.856;2022-07-29T05:27:34;5.95;;;3.60;;
5555;SDS011;2801;50.972;7.856;2022-07-29T05:30:03;5.38;;;3.10;;
5555;SDS011;2801;50.972;7.856;2022-07-29T05:32:30;7.13;;;3.10;;
5555;SDS011;2801;50.972;7.856;2022-07-29T05:34:57;6.57;;;3.28;;
5555;SDS011;2801;50.972;7.856;2022-07-29T05:37:24;7.93;;;3.03;;
5555;SDS011;2801;50.972;7.856;2022-07-29T05:39:51;5.53;;;3.40;;
5555;SDS011;2801;50.972;7.856;2022-07-29T05:42:22;4.15;;;2.88;;
5555;SDS011;2801;50.972;7.856;2022-07-29T05:44:52;4.07;;;2.75;;
5555;SDS011;2801;50.972;7.856;2022-07-29T05:47:21;6.85;;;2.92;;
5555;SDS011;2801;50.972;7.856;2022-07-29T05:49:50;5.35;;;2.80;;
5555;SDS011;2801;50.972;7.856;2022-07-29T05:52:17;5.40;;;2.90;;
5555;SDS011;2801;50.972;7.856;2022-07-29T05:54:44;6.32;;;2.80;;
5555;SDS011;2801;50.972;7.856;2022-07-29T05:57:18;2.88;;;2.35;;
5555;SDS011;2801;50.972;7.856;2022-07-29T05:59:47;7.47;;;2.78;;
5555;SDS011;2801;50.972;7.856;2022-07-29T06:02:15;4.53;;;2.40;;
5555;SDS011;2801;50.972;7.856;2022-07-29T06:04:43;7.28;;;3.20;;
5555;SDS011;2801;50.972;7.856;2022-07-29T06:07:10;5.95;;;2.70;;
5555;SDS011;2801;50.972;7.856;2022-07-29T06:09:37;9.10;;;3.00;;
5555;SDS011;2801;50.972;7.856;2022-07-29T06:12:04;7.18;;;2.67;;
5555;SDS011;2801;50.972;7.856;2022-07-29T06:14:31;5.07;;;2.30;;
5555;SDS011;2801;50.972;7.856;2022-07-29T06:16:58;7.80;;;3.20;;
5555;SDS011;2801;50.972;7.856;2022-07-29T06:19:25;4.47;;;2.55;;
5555;SDS011;2801;50.972;7.856;2022-07-29T06:21:52;3.55;;;2.28;;
5555;SDS011;2801;50.972;7.856;2022-07-29T06:24:19;8.65;;;2.80;;
5555;SDS011;2801;50.972;7.856;2022-07-29T06:26:46;6.15;;;2.70;;
5555;SDS011;2801;50.972;7.856;2022-07-29T06:29:13;4.40;;;2.78;;
5555;SDS011;2801;50.972;7.856;2022-07-29T06:31:39;5.45;;;2.40;;
5555;SDS011;2801;50.972;7.856;2022-07-29T06:34:07;10.95;;;2.55;;
5555;SDS011;2801;50.972;7.856;2022-07-29T06:36:34;4.85;;;2.90;;
5555;SDS011;2801;50.972;7.856;2022-07-29T06:39:03;4.07;;;2.13;;
5555;SDS011;2801;50.972;7.856;2022-07-29T06:41:33;5.68;;;2.55;;
5555;SDS011;2801;50.972;7.856;2022-07-29T06:44:00;7.50;;;2.63;;
5555;SDS011;2801;50.972;7.856;2022-07-29T06:46:27;3.35;;;2.40;;
5555;SDS011;2801;50.972;7.856;2022-07-29T06:48:54;5.75;;;2.38;;
5555;SDS011;2801;50.972;7.856;2022-07-29T06:51:22;6.45;;;2.35;;
5555;SDS011;2801;50.972;7.856;2022-07-29T06:53:52;4.13;;;2.40;;
5555;SDS011;2801;50.972;7.856;2022-07-29T06:56:28;4.38;;;2.67;;
5555;SDS011;2801;50.972;7.856;2022-07-29T06:59:05;3.42;;;1.80;;
5555;SDS011;2801;50.972;7.856;2022-07-29T07:01:36;4.85;;;2.22;;
5555;SDS011;2801;50.972;7.856;2022-07-29T07:04:08;7.32;;;2.75;;
5555;SDS011;2801;50.972;7.856;2022-07-29T07:06:36;8.65;;;2.58;;
5555;SDS011;2801;50.972;7.856;2022-07-29T07:09:04;6.13;;;2.30;;
5555;SDS011;2801;50.972;7.856;2022-07-29T07:11:31;6.25;;;2.38;;
5555;SDS011;2801;50.972;7.856;2022-07-29T07:13:58;6.70;;;2.40;;
5555;SDS011;2801;50.972;7.856;2022-07-29T07:16:29;5.47;;;2.28;;
5555;SDS011;2801;50.972;7.856;2022-07-29T07:18:57;4.80;;;2.42;;
5555;SDS011;2801;50.972;7.856;2022-07-29T07:21:24;6.28;;;2.25;;
5555;SDS011;2801;50.972;7.856;2022-07-29T07:23:51;4.65;;;2.20;;
5555;SDS011;2801;50.972;7.856;2022-07-29T07:26:21;3.15;;;2.15;;
5555;SDS011;2801;50.972;7.856;2022-07-29T07:28:48;5.78;;;2.20;;
5555;SDS011;2801;50.972;7.856;2022-07-29T07:31:15;4.82;;;2.38;;
5555;SDS011;2801;50.972;7.856;2022-07-29T07:33:42;6.18;;;2.33;;
5555;SDS011;2801;50.972;7.856;2022-07-29T07:36:09;6.82;;;2.10;;
5555;SDS011;2801;50.972;7.856;2022-07-29T07:38:35;4.15;;;2.28;;
5555;SDS011;2801;50.972;7.856;2022-07-29T07:41:02;5.50;;;2.38;;
5555;SDS011;2801;50.972;7.856;2022-07-29T07:43:30;5.68;;;2.63;;
5555;SDS011;2801;50.972;7.856;2022-07-29T07:45:57;2.80;;;2.05;;
5555;SDS011;2801;50.972;7.856;2022-07-29T07:48:24;4.53;;;2.33;;
5555;SDS011;2801;50.972;7.856;2022-07-29T07:50:50;5.13;;;2.03;;
5555;SDS011;2801;50.972;7.856;2022-07-29T07:53:17;3.40;;;2.22;;
5555;SDS011;2801;50.972;7.856;2022-07-29T07:55:44;3.92;;;2.08;;
5555;SDS011;2801;50.972;7.856;2022-07-29T07:58:31;4.05;;;2.20;;
5555;SDS011;2801;50.972;7.856;2022-07-29T08:00:59;4.47;;;2.00;;
5555;SDS011;2801;50.972;7.856;2022-07-29T08:03:25;5.78;;;2.33;;
5555;SDS011;2801;50.972;7.856;2022-07-29T08:05:52;5.80;;;3.00;;
5555;SDS011;2801;50.972;7.856;2022-07-29T08:08:20;4.80;;;1.98;;
5555;SDS011;2801;50.972;7.856;2022-07-29T08:10:47;6.97;;;2.15;;
5555;SDS011;2801;50.972;7.856;2022-07-29T08:13:23;3.92;;;1.98;;
5555;SDS011;2801;50.972;7.856;2022-07-29T08:15:53;3.70;;;2.17;;
5555;SDS011;2801;50.972;7.856;2022-07-29T08:18:24;3.50;;;2.22;;
5555;SDS011;2801;50.972;7.856;2022-07-29T08:20:56;3.65;;;1.90;;
5555;SDS011;2801;50.972;7.856;2022-07-29T08:23:24;3.35;;;1.88;;
5555;SDS011;2801;50.972;7.856;2022-07-29T08:26:12;3.67;;;2.30;;
5555;SDS011;2801;50.972;7.856;2022-07-29T08:28:40;4.68;;;2.50;;
5555;SDS011;2801;50.972;7.856;2022-07-29T08:31:12;5.45;;;2.00;;
5555;SDS011;2801;50.972;7.856;2022-07-29T08:33:40;5.00;;;1.95;;
5555;SDS011;2801;50.972;7.856;2022-07-29T08:36:08;4.15;;;2.17;;
5555;SDS011;2801;50.972;7.856;2022-07-29T08:38:35;5.35;;;2.20;;
5555;SDS011;2801;50.972;7.856;2022-07-29T08:41:02;4.03;;;2.00;;
5555;SDS011;2801;50.972;7.856;2022-07-29T08:43:29;4.30;;;2.25;;
5555;SDS011;2801;50.972;7.856;2022-07-29T08:45:56;3.58;;;2.10;;
5555;SDS011;2801;50.972;7.856;2022-07-29T08:48:23;4.55;;;2.17;;
5555;SDS011;2801;50.972;7.856;2022-07-29T08:50:56;3.33;;;2.08;;
5555;SDS011;2801;50.972;7.856;2022-07-29T08:53:25;2.75;;;1.98;;
5555;SDS011;2801;50.972;7.856;2022-07-29T08:55:54;4.97;;;2.30;;
5555;SDS011;2801;50.972;7.856;2022-07-29T08:58:23;3.72;;;2.30;;
5555;SDS011;2801;50.972;7.856;2022-07-29T09:00:52;3.88;;;1.80;;
5555;SDS011;2801;50.972;7.856;2022-07-29T09:03:24;3.63;;;2.17;;
5555;SDS011;2801;50.972;7.856;2022-07-29T09:05:56;2.58;;;1.75;;
5555;SDS011;2801;50.972;7.856;2022-07-29T09:08:25;5.00;;;2.25;;
5555;SDS011;2801;50.972;7.856;2022-07-29T09:10:52;4.50;;;2.00;;
5555;SDS011;2801;50.972;7.856;2022-07-29T09:13:22;5.57;;;2.35;;
5555;SDS011;2801;50.972;7.856;2022-07-29T09:15:48;4.60;;;2.42;;
5555;SDS011;2801;50.972;7.856;2022-07-29T09:21:06;4.25;;;2.38;;
5555;SDS011;2801;50.972;7.856;2022-07-29T09:24:01;4.03;;;2.25;;
5555;SDS011;2801;50.972;7.856;2022-07-29T09:26:35;3.60;;;2.28;;
5555;SDS011;2801;50.972;7.856;2022-07-29T09:29:10;4.43;;;2.42;;
5555;SDS011;2801;50.972;7.856;2022-07-29T09:31:39;3.97;;;2.45;;
5555;SDS011;2801;50.972;7.856;2022-07-29T09:34:09;5.25;;;2.50;;
5555;SDS011;2801;50.972;7.856;2022-07-29T09:36:38;4.43;;;2.20;;
5555;SDS011;2801;50.972;7.856;2022-07-29T09:39:08;5.20;;;2.20;;
5555;SDS011;2801;50.972;7.856;2022-07-29T09:44:48;3.65;;;2.15;;
5555;SDS011;2801;50.972;7.856;2022-07-29T09:47:17;4.13;;;2.33;;
5555;SDS011;2801;50.972;7.856;2022-07-29T09:49:52;3.85;;;2.30;;
5555;SDS011;2801;50.972;7.856;2022-07-29T09:52:28;4.28;;;2.33;;
5555;SDS011;2801;50.972;7.856;2022-07-29T09:55:08;5.38;;;2.33;;
5555;SDS011;2801;50.972;7.856;2022-07-29T09:57:44;4.00;;;2.13;;
5555;SDS011;2801;50.972;7.856;2022-07-29T10:00:16;3.70;;;2.20;;
5555;SDS011;2801;50.972;7.856;2022-07-29T10:02:46;5.20;;;2.55;;
5555;SDS011;2801;50.972;7.856;2022-07-29T10:07:52;3.63;;;2.47;;
5555;SDS011;2801;50.972;7.856;2022-07-29T10:10:26;4.50;;;2.35;;
5555;SDS011;2801;50.972;7.856;2022-07-29T10:13:00;2.72;;;2.22;;
5555;SDS011;2801;50.972;7.856;2022-07-29T10:15:38;6.50;;;2.45;;
5555;SDS011;2801;50.972;7.856;2022-07-29T10:18:10;4.28;;;2.13;;
5555;SDS011;2801;50.972;7.856;2022-07-29T10:20:39;4.45;;;2.22;;
5555;SDS011;2801;50.972;7.856;2022-07-29T10:23:07;4.18;;;2.45;;
5555;SDS011;2801;50.972;7.856;2022-07-29T10:25:35;3.88;;;2.10;;
5555;SDS011;2801;50.972;7.856;2022-07-29T10:28:02;4.75;;;2.35;;
5555;SDS011;2801;50.972;7.856;2022-07-29T10:30:32;6.50;;;2.45;;
5555;SDS011;2801;50.972;7.856;2022-07-29T10:36:22;3.78;;;2.30;;
5555;SDS011;2801;50.972;7.856;2022-07-29T10:39:25;3.97;;;2.10;;
5555;SDS011;2801;50.972;7.856;2022-07-29T10:42:53;4.55;;;2.40;;
5555;SDS011;2801;50.972;7.856;2022-07-29T10:45:26;3.78;;;2.20;;
5555;SDS011;2801;50.972;7.856;2022-07-29T10:48:05;4.95;;;2.80;;
5555;SDS011;2801;50.972;7.856;2022-07-29T10:53:49;4.82;;;2.63;;
5555;SDS011;2801;50.972;7.856;2022-07-29T11:01:48;4.78;;;2.70;;
5555;SDS011;2801;50.972;7.856;2022-07-29T11:07:13;3.10;;;2.03;;
5555;SDS011;2801;50.972;7.856;2022-07-29T11:09:42;4.07;;;2.38;;
5555;SDS011;2801;50.972;7.856;2022-07-29T11:15:05;3.58;;;2.38;;
5555;SDS011;2801;50.972;7.856;2022-07-29T11:18:03;3.20;;;2.20;;
5555;SDS011;2801;50.972;7.856;2022-07-29T11:29:20;3.40;;;2.28;;
5555;SDS011;2801;50.972;7.856;2022-07-29T11:31:52;5.65;;;2.72;;
5555;SDS011;2801;50.972;7.856;2022-07-29T11:34:30;3.88;;;2.55;;
5555;SDS011;2801;50.972;7.856;2022-07-29T11:39:33;5.57;;;2.80;;
5555;SDS011;2801;50.972;7.856;2022-07-29T11:45:02;3.50;;;2.30;;
5555;SDS011;2801;50.972;7.856;2022-07-29T11:48:15;2.92;;;2.40;;
5555;SDS011;2801;50.972;7.856;2022-07-29T11:51:04;3.42;;;2.50;;
5555;SDS011;2801;50.972;7.856;2022-07-29T11:53:38;3.75;;;2.50;;
5555;SDS011;2801;50.972;7.856;2022-07-29T11:56:07;2.28;;;2.08;;
5555;SDS011;2801;50.972;7.856;2022-07-29T11:58:35;4.03;;;2.53;;
5555;SDS011;2801;50.972;7.856;2022-07-29T12:01:03;2.25;;;2.05;;
5555;SDS011;2801;50.972;7.856;2022-07-29T12:03:31;4.35;;;2.30;;
5555;SDS011;2801;50.972;7.856;2022-07-29T12:06:11;4.28;;;2.63;;
5555;SDS011;2801;50.972;7.856;2022-07-29T12:08:42;4.47;;;2.38;;
5555;SDS011;2801;50.972;7.856;2022-07-29T12:11:15;3.47;;;2.58;;
5555;SDS011;2801;50.972;7.856;2022-07-29T12:13:48;2.38;;;2.10;;
5555;SDS011;2801;50.972;7.856;2022-07-29T12:16:17;4.35;;;2.35;;
5555;SDS011;2801;50.972;7.856;2022-07-29T12:19:01;3.97;;;2.60;;
5555;SDS011;2801;50.972;7.856;2022-07-29T12:21:51;3.45;;;2.35;;
5555;SDS011;2801;50.972;7.856;2022-07-29T12:24:27;5.05;;;2.45;;
5555;SDS011;2801;50.972;7.856;2022-07-29T12:27:11;2.63;;;2.40;;
5555;SDS011;2801;50.972;7.856;2022-07-29T12:29:43;3.20;;;2.45;;
5555;SDS011;2801;50.972;7.856;2022-07-29T12:32:14;3.80;;;2.40;;
5555;SDS011;2801;50.972;7.856;2022-07-29T12:34:45;4.85;;;2.42;;
5555;SDS011;2801;50.972;7.856;2022-07-29T12:37:12;4.13;;;2.25;;
5555;SDS011;2801;50.972;7.856;2022-07-29T12:39:39;4.03;;;2.40;;
5555;SDS011;2801;50.972;7.856;2022-07-29T12:42:13;4.20;;;2.50;;
5555;SDS011;2801;50.972;7.856;2022-07-29T12:44:47;3.20;;;2.33;;
5555;SDS011;2801;50.972;7.856;2022-07-29T12:47:16;3.67;;;2.40;;
5555;SDS011;2801;50.972;7.856;2022-07-29T12:49:45;4.72;;;2.42;;
5555;SDS011;2801;50.972;7.856;2022-07-29T12:52:26;4.10;;;2.53;;
5555;SDS011;2801;50.972;7.856;2022-07-29T12:54:59;3.42;;;2.58;;
5555;SDS011;2801;50.972;7.856;2022-07-29T12:57:27;6.20;;;2.30;;
5555;SDS011;2801;50.972;7.856;2022-07-29T13:02:37;2.92;;;2.55;;
5555;SDS011;2801;50.972;7.856;2022-07-29T13:05:06;4.45;;;2.58;;
5555;SDS011;2801;50.972;7.856;2022-07-29T13:07:34;2.85;;;2.42;;
5555;SDS011;2801;50.972;7.856;2022-07-29T13:10:20;3.45;;;2.40;;
5555;SDS011;2801;50.972;7.856;2022-07-29T13:13:06;4.00;;;2.50;;
5555;SDS011;2801;50.972;7.856;2022-07-29T13:15:39;3.88;;;2.67;;
5555;SDS011;2801;50.972;7.856;2022-07-29T13:18:32;4.93;;;2.55;;
5555;SDS011;2801;50.972;7.856;2022-07-29T13:21:13;4.97;;;2.47;;
5555;SDS011;2801;50.972;7.856;2022-07-29T13:23:44;3.00;;;2.40;;
5555;SDS011;2801;50.972;7.856;2022-07-29T13:26:11;2.55;;;2.35;;
5555;SDS011;2801;50.972;7.856;2022-07-29T13:28:38;3.72;;;2.80;;
5555;SDS011;2801;50.972;7.856;2022-07-29T13:31:05;9.13;;;2.50;;
5555;SDS011;2801;50.972;7.856;2022-07-29T13:33:31;2.85;;;2.25;;
5555;SDS011;2801;50.972;7.856;2022-07-29T13:35:58;2.47;;;2.17;;
5555;SDS011;2801;50.972;7.856;2022-07-29T13:38:25;4.28;;;2.30;;
5555;SDS011;2801;50.972;7.856;2022-07-29T13:40:56;3.83;;;2.40;;
5555;SDS011;2801;50.972;7.856;2022-07-29T13:43:24;4.20;;;2.42;;
5555;SDS011;2801;50.972;7.856;2022-07-29T13:45:51;3.50;;;2.45;;
5555;SDS011;2801;50.972;7.856;2022-07-29T13:48:18;3.85;;;2.35;;
5555;SDS011;2801;50.972;7.856;2022-07-29T13:50:45;2.70;;;2.30;;
5555;SDS011;2801;50.972;7.856;2022-07-29T13:53:12;3.10;;;2.40;;
5555;SDS011;2801;50.972;7.856;2022-07-29T13:55:43;3.97;;;2.55;;
5555;SDS011;2801;50.972;7.856;2022-07-29T13:58:10;4.28;;;2.50;;
5555;SDS011;2801;50.972;7.856;2022-07-29T14:00:37;3.58;;;2.20;;
5555;SDS011;2801;50.972;7.856;2022-07-29T14:03:04;5.78;;;2.50;;
5555;SDS011;2801;50.972;7.856;2022-07-29T14:05:32;4.55;;;2.60;;
5555;SDS011;2801;50.972;7.856;2022-07-29T14:07:59;4.20;;;2.70;;
5555;SDS011;2801;50.972;7.856;2022-07-29T14:10:26;5.32;;;2.85;;
5555;SDS011;2801;50.972;7.856;2022-07-29T14:12:53;3.17;;;2.42;;
5555;SDS011;2801;50.972;7.856;2022-07-29T14:15:20;3.53;;;2.50;;
5555;SDS011;2801;50.972;7.856;2022-07-29T14:17:47;4.07;;;2.45;;
5555;SDS011;2801;50.972;7.856;2022-07-29T14:20:14;6.22;;;2.58;;
5555;SDS011;2801;50.972;7.856;2022-07-29T14:22:42;5.35;;;2.70;;
5555;SDS011;2801;50.972;7.856;2022-07-29T14:25:10;3.85;;;2.40;;
5555;SDS011;2801;50.972;7.856;2022-07-29T14:27:40;3.33;;;2.60;;
5555;SDS011;2801;50.972;7.856;2022-07-29T14:30:10;3.50;;;2.35;;
5555;SDS011;2801;50.972;7.856;2022-07-29T14:32:37;5.00;;;3.13;;
5555;SDS011;2801;50.972;7.856;2022-07-29T14:35:05;3.03;;;2.40;;
5555;SDS011;2801;50.972;7.856;2022-07-29T14:37:32;5.10;;;2.78;;
5555;SDS011;2801;50.972;7.856;2022-07-29T14:40:05;3.53;;;2.40;;
5555;SDS011;2801;50.972;7.856;2022-07-29T14:42:34;3.22;;;2.40;;
5555;SDS011;2801;50.972;7.856;2022-07-29T14:45:02;3.67;;;2.83;;
5555;SDS011;2801;50.972;7.856;2022-07-29T14:47:33;4.85;;;2.50;;
5555;SDS011;2801;50.972;7.856;2022-07-29T14:50:00;6.45;;;2.60;;
5555;SDS011;2801;50.972;7.856;2022-07-29T14:52:28;3.53;;;2.67;;
5555;SDS011;2801;50.972;7.856;2022-07-29T14:54:55;6.70;;;2.60;;
5555;SDS011;2801;50.972;7.856;2022-07-29T14:57:21;4.30;;;2.33;;
5555;SDS011;2801;50.972;7.856;2022-07-29T14:59:48;5.00;;;2.55;;
5555;SDS011;2801;50.972;7.856;2022-07-29T15:02:16;4.32;;;2.85;;
5555;SDS011;2801;50.972;7.856;2022-07-29T15:04:43;6.03;;;3.10;;
5555;SDS011;2801;50.972;7.856;2022-07-29T15:07:12;8.35;;;3.00;;
5555;SDS011;2801;50.972;7.856;2022-07-29T15:09:38;5.80;;;2.53;;
5555;SDS011;2801;50.972;7.856;2022-07-29T15:12:15;3.47;;;2.40;;
5555;SDS011;2801;50.972;7.856;2022-07-29T15:14:42;5.78;;;2.70;;
5555;SDS011;2801;50.972;7.856;2022-07-29T15:17:09;5.30;;;2.58;;
5555;SDS011;2801;50.972;7.856;2022-07-29T15:19:36;4.75;;;2.42;;
5555;SDS011;2801;50.972;7.856;2022-07-29T15:22:09;5.35;;;2.80;;
5555;SDS011;2801;50.972;7.856;2022-07-29T15:24:36;4.63;;;2.88;;
5555;SDS011;2801;50.972;7.856;2022-07-29T15:27:03;3.40;;;2.58;;
5555;SDS011;2801;50.972;7.856;2022-07-29T15:29:30;8.75;;;2.75;;
5555;SDS011;2801;50.972;7.856;2022-07-29T15:31:57;5.07;;;2.92;;
5555;SDS011;2801;50.972;7.856;2022-07-29T15:34:25;7.55;;;2.88;;
5555;SDS011;2801;50.972;7.856;2022-07-29T15:36:52;4.07;;;2.80;;
5555;SDS011;2801;50.972;7.856;2022-07-29T15:39:19;5.13;;;2.80;;
5555;SDS011;2801;50.972;7.856;2022-07-29T15:41:48;6.82;;;2.72;;
5555;SDS011;2801;50.972;7.856;2022-07-29T15:44:15;4.82;;;2.90;;
5555;SDS011;2801;50.972;7.856;2022-07-29T15:46:42;3.28;;;2.67;;
5555;SDS011;2801;50.972;7.856;2022-07-29T15:49:32;6.38;;;3.03;;
5555;SDS011;2801;50.972;7.856;2022-07-29T15:52:15;4.68;;;2.80;;
5555;SDS011;2801;50.972;7.856;2022-07-29T15:54:50;5.40;;;2.80;;
5555;SDS011;2801;50.972;7.856;2022-07-29T15:57:18;3.60;;;2.47;;
5555;SDS011;2801;50.972;7.856;2022-07-29T15:59:44;8.10;;;2.90;;
5555;SDS011;2801;50.972;7.856;2022-07-29T16:02:11;5.55;;;2.55;;
5555;SDS011;2801;50.972;7.856;2022-07-29T16:04:38;5.82;;;3.22;;
5555;SDS011;2801;50.972;7.856;2022-07-29T16:07:05;4.72;;;2.90;;
5555;SDS011;2801;50.972;7.856;2022-07-29T16:09:32;5.82;;;2.72;;
5555;SDS011;2801;50.972;7.856;2022-07-29T16:11:59;4.60;;;2.85;;
5555;SDS011;2801;50.972;7.856;2022-07-29T16:14:27;6.10;;;3.00;;
5555;SDS011;2801;50.972;7.856;2022-07-29T16:16:54;3.67;;;2.38;;
5555;SDS011;2801;50.972;7.856;2022-07-29T16:19:22;5.97;;;2.40;;
5555;SDS011;2801;50.972;7.856;2022-07-29T16:21:48;5.57;;;2.83;;
5555;SDS011;2801;50.972;7.856;2022-07-29T16:24:15;6.10;;;2.60;;
5555;SDS011;2801;50.972;7.856;2022-07-29T16:26:43;6.70;;;2.97;;
5555;SDS011;2801;50.972;7.856;2022-07-29T16:29:10;5.78;;;2.58;;
5555;SDS011;2801;50.972;7.856;2022-07-29T16:31:36;7.40;;;2.85;;
5555;SDS011;2801;50.972;7.856;2022-07-29T16:34:03;5.10;;;2.83;;
5555;SDS011;2801;50.972;7.856;2022-07-29T16:36:30;3.80;;;2.70;;
5555;SDS011;2801;50.972;7.856;2022-07-29T16:38:57;3.97;;;2.67;;
5555;SDS011;2801;50.972;7.856;2022-07-29T16:41:25;4.63;;;2.80;;
5555;SDS011;2801;50.972;7.856;2022-07-29T16:43:51;5.53;;;2.70;;
5555;SDS011;2801;50.972;7.856;2022-07-29T16:46:18;5.75;;;2.80;;
5555;SDS011;2801;50.972;7.856;2022-07-29T16:48:49;5.68;;;2.83;;